sensor_id;sensor_type;location;lat;lon;timestamp;temperature;humidity
21627;DHT22;10975;47.872;12.972;2023-02-03T00:01:47;4.50;99.90
21627;DHT22;10975;47.872;12.972;2023-02-03T00:04:14;4.60;99.90
21627;DHT22;10975;47.872;12.972;2023-02-03T00:06:43;4.60;99.90
21627;DHT22;10975;47.872;12.972;2023-02-03T00:09:10;4.60;99.90
21627;DHT22;10975;47.872;12.972;2023-02-03T00:11:37;4.60;99.90
21627;DHT22;10975;47.872;12.972;2023-02-03T00:14:04;4.60;99.90
21627;DHT22;10975;47.872;12.972;2023-02-03T00:16:33;4.60;99.90
21627;DHT22;10975;47.872;12.972;2023-02-03T00:19:00;4.50;99.90
21627;DHT22;10975;47.872;12.972;2023-02-03T00:21:27;4.50;99.90
21627;DHT22;10975;47.872;12.972;2023-02-03T00:23:53;4.70;99.90
21627;DHT22;10975;47.872;12.972;2023-02-03T00:26:20;4.90;99.90
21627;DHT22;10975;47.872;12.972;2023-02-03T00:28:52;4.70;99.90
21627;DHT22;10975;47.872;12.972;2023-02-03T00:31:20;4.60;99.90
21627;DHT22;10975;47.872;12.972;2023-02-03T00:33:52;4.60;99.90
21627;DHT22;10975;47.872;12.972;2023-02-03T00:36:19;4.70;99.90
21627;DHT22;10975;47.872;12.972;2023-02-03T00:38:46;4.70;99.90
21627;DHT22;10975;47.872;12.972;2023-02-03T00:41:14;4.60;99.90
21627;DHT22;10975;47.872;12.972;2023-02-03T00:43:42;4.80;99.90
21627;DHT22;10975;47.872;12.972;2023-02-03T00:46:09;4.80;99.90
21627;DHT22;10975;47.872;12.972;2023-02-03T00:48:37;4.70;99.90
21627;DHT22;10975;47.872;12.972;2023-02-03T00:51:04;4.80;99.90
21627;DHT22;10975;47.872;12.972;2023-02-03T00:53:31;4.80;99.90
21627;DHT22;10975;47.872;12.972;2023-02-03T00:55:58;4.60;99.90
21627;DHT22;10975;47.872;12.972;2023-02-03T00:58:24;4.70;99.90
21627;DHT22;10975;47.872;12.972;2023-02-03T01:00:52;4.90;99.90
21627;DHT22;10975;47.872;12.972;2023-02-03T01:03:19;4.80;99.90
21627;DHT22;10975;47.872;12.972;2023-02-03T01:05:46;4.80;99.90
21627;DHT22;10975;47.872;12.972;2023-02-03T01:08:12;4.70;99.90
21627;DHT22;10975;47.872;12.972;2023-02-03T01:10:40;4.80;99.90
21627;DHT22;10975;47.872;12.972;2023-02-03T01:13:09;4.80;99.90
21627;DHT22;10975;47.872;12.972;2023-02-03T01:15:36;4.70;99.90
21627;DHT22;10975;47.872;12.972;2023-02-03T01:18:02;4.70;99.90
21627;DHT22;10975;47.872;12.972;2023-02-03T01:20:29;4.80;99.90
21627;DHT22;10975;47.872;12.972;2023-02-03T01:22:56;4.90;99.90
21627;DHT22;10975;47.872;12.972;2023-02-03T01:25:23;5.00;99.90
21627;DHT22;10975;47.872;12.972;2023-02-03T01:27:49;5.00;99.90
21627;DHT22;10975;47.872;12.972;2023-02-03T01:30:16;5.00;99.90
21627;DHT22;10975;47.872;12.972;2023-02-03T01:32:43;4.90;99.90
21627;DHT22;10975;47.872;12.972;2023-02-03T01:35:10;4.90;99.90
21627;DHT22;10975;47.872;12.972;2023-02-03T01:37:43;5.00;99.90
21627;DHT22;10975;47.872;12.972;2023-02-03T01:40:10;5.10;99.90
21627;DHT22;10975;47.872;12.972;2023-02-03T01:42:36;5.10;99.90
21627;DHT22;10975;47.872;12.972;2023-02-03T01:45:03;5.10;99.90
21627;DHT22;10975;47.872;12.972;2023-02-03T01:47:35;5.40;99.90
21627;DHT22;10975;47.872;12.972;2023-02-03T01:52:33;5.30;99.90
21627;DHT22;10975;47.872;12.972;2023-02-03T01:55:02;5.40;99.90
21627;DHT22;10975;47.872;12.972;2023-02-03T01:57:32;5.20;99.90
21627;DHT22;10975;47.872;12.972;2023-02-03T02:00:00;5.30;99.90
21627;DHT22;10975;47.872;12.972;2023-02-03T02:02:28;5.40;99.90
21627;DHT22;10975;47.872;12.972;2023-02-03T02:05:05;5.30;99.90
21627;DHT22;10975;47.872;12.972;2023-02-03T02:07:32;5.30;99.90
21627;DHT22;10975;47.872;12.972;2023-02-03T02:09:59;5.40;99.90
21627;DHT22;10975;47.872;12.972;2023-02-03T02:12:26;5.30;99.90
21627;DHT22;10975;47.872;12.972;2023-02-03T02:14:53;5.20;99.90
21627;DHT22;10975;47.872;12.972;2023-02-03T02:22:17;5.00;99.90
21627;DHT22;10975;47.872;12.972;2023-02-03T02:30:22;5.30;99.90
21627;DHT22;10975;47.872;12.972;2023-02-03T02:35:24;5.30;99.90
21627;DHT22;10975;47.872;12.972;2023-02-03T02:40:37;5.20;99.90
21627;DHT22;10975;47.872;12.972;2023-02-03T02:43:09;5.30;99.90
21627;DHT22;10975;47.872;12.972;2023-02-03T02:45:42;5.30;99.90
21627;DHT22;10975;47.872;12.972;2023-02-03T02:48:13;5.30;99.90
21627;DHT22;10975;47.872;12.972;2023-02-03T02:50:42;5.30;99.90
21627;DHT22;10975;47.872;12.972;2023-02-03T02:53:10;5.30;99.90
21627;DHT22;10975;47.872;12.972;2023-02-03T02:55:39;5.30;99.90
21627;DHT22;10975;47.872;12.972;2023-02-03T02:58:07;5.40;99.90
21627;DHT22;10975;47.872;12.972;2023-02-03T03:00:35;5.40;99.90
21627;DHT22;10975;47.872;12.972;2023-02-03T03:03:12;5.60;99.90
21627;DHT22;10975;47.872;12.972;2023-02-03T03:05:39;5.60;99.90
21627;DHT22;10975;47.872;12.972;2023-02-03T03:08:07;5.70;99.90
21627;DHT22;10975;47.872;12.972;2023-02-03T03:10:35;5.70;99.90
21627;DHT22;10975;47.872;12.972;2023-02-03T03:13:06;5.80;99.90
21627;DHT22;10975;47.872;12.972;2023-02-03T03:15:33;5.70;99.90
21627;DHT22;10975;47.872;12.972;2023-02-03T03:18:21;5.60;99.90
21627;DHT22;10975;47.872;12.972;2023-02-03T03:20:49;5.70;99.90
21627;DHT22;10975;47.872;12.972;2023-02-03T03:23:26;5.80;99.90
21627;DHT22;10975;47.872;12.972;2023-02-03T03:25:57;5.80;99.90
21627;DHT22;10975;47.872;12.972;2023-02-03T03:28:35;5.70;99.90
21627;DHT22;10975;47.872;12.972;2023-02-03T03:31:03;5.70;99.90
21627;DHT22;10975;47.872;12.972;2023-02-03T03:33:30;5.70;99.90
21627;DHT22;10975;47.872;12.972;2023-02-03T03:36:02;5.80;99.90
21627;DHT22;10975;47.872;12.972;2023-02-03T03:38:39;5.70;99.90
21627;DHT22;10975;47.872;12.972;2023-02-03T03:41:18;5.90;99.90
21627;DHT22;10975;47.872;12.972;2023-02-03T03:43:56;5.80;99.90
21627;DHT22;10975;47.872;12.972;2023-02-03T03:46:28;5.50;99.90
21627;DHT22;10975;47.872;12.972;2023-02-03T03:48:57;5.60;99.90
21627;DHT22;10975;47.872;12.972;2023-02-03T03:51:27;5.40;99.90
21627;DHT22;10975;47.872;12.972;2023-02-03T03:53:56;5.30;99.90
21627;DHT22;10975;47.872;12.972;2023-02-03T03:56:27;5.30;99.90
21627;DHT22;10975;47.872;12.972;2023-02-03T03:58:55;5.30;99.90
21627;DHT22;10975;47.872;12.972;2023-02-03T04:01:22;5.20;99.90
21627;DHT22;10975;47.872;12.972;2023-02-03T04:03:57;5.20;99.90
21627;DHT22;10975;47.872;12.972;2023-02-03T04:06:25;5.30;99.90
21627;DHT22;10975;47.872;12.972;2023-02-03T04:08:52;5.40;99.90
21627;DHT22;10975;47.872;12.972;2023-02-03T04:11:18;5.40;99.90
21627;DHT22;10975;47.872;12.972;2023-02-03T04:14:04;5.50;99.90
21627;DHT22;10975;47.872;12.972;2023-02-03T04:16:30;5.50;99.90
21627;DHT22;10975;47.872;12.972;2023-02-03T04:18:57;5.50;99.90
21627;DHT22;10975;47.872;12.972;2023-02-03T04:21:28;5.40;99.90
21627;DHT22;10975;47.872;12.972;2023-02-03T04:23:55;5.50;99.90
21627;DHT22;10975;47.872;12.972;2023-02-03T04:26:22;5.60;99.90
21627;DHT22;10975;47.872;12.972;2023-02-03T04:28:49;5.70;99.90
21627;DHT22;10975;47.872;12.972;2023-02-03T04:31:16;5.90;99.90
21627;DHT22;10975;47.872;12.972;2023-02-03T04:33:42;5.80;99.90
21627;DHT22;10975;47.872;12.972;2023-02-03T04:36:09;5.90;99.90
21627;DHT22;10975;47.872;12.972;2023-02-03T04:38:36;5.80;99.90
21627;DHT22;10975;47.872;12.972;2023-02-03T04:41:03;5.70;99.90
21627;DHT22;10975;47.872;12.972;2023-02-03T04:43:29;5.80;99.90
21627;DHT22;10975;47.872;12.972;2023-02-03T04:45:58;5.70;99.90
21627;DHT22;10975;47.872;12.972;2023-02-03T04:48:24;5.60;99.90
21627;DHT22;10975;47.872;12.972;2023-02-03T04:50:51;5.60;99.90
21627;DHT22;10975;47.872;12.972;2023-02-03T04:53:18;5.40;99.90
21627;DHT22;10975;47.872;12.972;2023-02-03T04:55:45;5.40;99.90
21627;DHT22;10975;47.872;12.972;2023-02-03T04:58:12;5.50;99.90
21627;DHT22;10975;47.872;12.972;2023-02-03T05:00:38;5.40;99.90
21627;DHT22;10975;47.872;12.972;2023-02-03T05:03:05;5.50;99.90
21627;DHT22;10975;47.872;12.972;2023-02-03T05:05:32;5.50;99.90
21627;DHT22;10975;47.872;12.972;2023-02-03T05:07:59;5.60;99.90
21627;DHT22;10975;47.872;12.972;2023-02-03T05:10:25;5.70;99.90
21627;DHT22;10975;47.872;12.972;2023-02-03T05:12:52;5.70;99.90
21627;DHT22;10975;47.872;12.972;2023-02-03T05:15:19;5.80;99.90
21627;DHT22;10975;47.872;12.972;2023-02-03T05:17:46;5.70;99.90
21627;DHT22;10975;47.872;12.972;2023-02-03T05:20:12;5.80;99.90
21627;DHT22;10975;47.872;12.972;2023-02-03T05:22:39;5.80;99.90
21627;DHT22;10975;47.872;12.972;2023-02-03T05:25:06;5.90;99.90
21627;DHT22;10975;47.872;12.972;2023-02-03T05:27:33;6.00;99.90
21627;DHT22;10975;47.872;12.972;2023-02-03T05:29:59;6.10;99.90
21627;DHT22;10975;47.872;12.972;2023-02-03T05:32:26;6.20;99.90
21627;DHT22;10975;47.872;12.972;2023-02-03T05:34:53;6.00;99.90
21627;DHT22;10975;47.872;12.972;2023-02-03T05:37:20;6.10;99.90
21627;DHT22;10975;47.872;12.972;2023-02-03T05:39:48;6.00;99.90
21627;DHT22;10975;47.872;12.972;2023-02-03T05:42:15;6.00;99.90
21627;DHT22;10975;47.872;12.972;2023-02-03T05:44:41;6.10;99.90
21627;DHT22;10975;47.872;12.972;2023-02-03T05:47:08;6.00;99.90
21627;DHT22;10975;47.872;12.972;2023-02-03T05:49:35;5.90;99.90
21627;DHT22;10975;47.872;12.972;2023-02-03T05:52:01;5.90;99.90
21627;DHT22;10975;47.872;12.972;2023-02-03T05:54:28;5.90;99.90
21627;DHT22;10975;47.872;12.972;2023-02-03T05:56:55;6.00;99.90
21627;DHT22;10975;47.872;12.972;2023-02-03T05:59:22;5.90;99.90
21627;DHT22;10975;47.872;12.972;2023-02-03T06:01:48;5.80;99.90
21627;DHT22;10975;47.872;12.972;2023-02-03T06:04:15;5.70;99.90
21627;DHT22;10975;47.872;12.972;2023-02-03T06:06:42;5.90;99.90
21627;DHT22;10975;47.872;12.972;2023-02-03T06:09:08;5.90;99.90
21627;DHT22;10975;47.872;12.972;2023-02-03T06:11:35;5.80;99.90
21627;DHT22;10975;47.872;12.972;2023-02-03T06:14:02;5.80;99.90
21627;DHT22;10975;47.872;12.972;2023-02-03T06:16:29;5.80;99.90
21627;DHT22;10975;47.872;12.972;2023-02-03T06:18:56;5.80;99.90
21627;DHT22;10975;47.872;12.972;2023-02-03T06:21:27;5.70;99.90
21627;DHT22;10975;47.872;12.972;2023-02-03T06:23:54;5.70;99.90
21627;DHT22;10975;47.872;12.972;2023-02-03T06:26:22;5.70;99.90
21627;DHT22;10975;47.872;12.972;2023-02-03T06:28:49;5.80;99.90
21627;DHT22;10975;47.872;12.972;2023-02-03T06:31:16;5.90;99.90
21627;DHT22;10975;47.872;12.972;2023-02-03T06:33:43;5.90;99.90
21627;DHT22;10975;47.872;12.972;2023-02-03T06:36:10;5.80;99.90
21627;DHT22;10975;47.872;12.972;2023-02-03T06:38:37;5.80;99.90
21627;DHT22;10975;47.872;12.972;2023-02-03T06:41:03;6.00;99.90
21627;DHT22;10975;47.872;12.972;2023-02-03T06:43:30;6.20;99.90
21627;DHT22;10975;47.872;12.972;2023-02-03T06:45:57;6.20;99.90
21627;DHT22;10975;47.872;12.972;2023-02-03T06:48:24;6.30;99.90
21627;DHT22;10975;47.872;12.972;2023-02-03T06:50:50;6.30;99.90
21627;DHT22;10975;47.872;12.972;2023-02-03T06:53:17;6.40;99.90
21627;DHT22;10975;47.872;12.972;2023-02-03T06:55:44;6.50;99.90
21627;DHT22;10975;47.872;12.972;2023-02-03T06:58:10;6.60;99.90
21627;DHT22;10975;47.872;12.972;2023-02-03T07:00:39;6.80;99.90
21627;DHT22;10975;47.872;12.972;2023-02-03T07:03:06;6.80;99.90
21627;DHT22;10975;47.872;12.972;2023-02-03T07:05:32;6.90;99.90
21627;DHT22;10975;47.872;12.972;2023-02-03T07:08:01;6.70;99.90
21627;DHT22;10975;47.872;12.972;2023-02-03T07:10:28;6.80;99.90
21627;DHT22;10975;47.872;12.972;2023-02-03T07:13:00;6.80;99.90
21627;DHT22;10975;47.872;12.972;2023-02-03T07:15:26;6.80;99.90
21627;DHT22;10975;47.872;12.972;2023-02-03T07:17:53;6.60;99.90
21627;DHT22;10975;47.872;12.972;2023-02-03T07:20:20;6.80;99.90
21627;DHT22;10975;47.872;12.972;2023-02-03T07:22:54;6.80;99.90
21627;DHT22;10975;47.872;12.972;2023-02-03T07:25:22;6.90;99.90
21627;DHT22;10975;47.872;12.972;2023-02-03T07:27:49;6.80;99.90
21627;DHT22;10975;47.872;12.972;2023-02-03T07:30:16;6.70;99.90
21627;DHT22;10975;47.872;12.972;2023-02-03T07:32:49;7.00;99.90
21627;DHT22;10975;47.872;12.972;2023-02-03T07:35:16;7.00;99.90
21627;DHT22;10975;47.872;12.972;2023-02-03T07:37:43;6.90;99.90
21627;DHT22;10975;47.872;12.972;2023-02-03T07:40:10;6.70;99.90
21627;DHT22;10975;47.872;12.972;2023-02-03T07:42:39;6.70;99.90
21627;DHT22;10975;47.872;12.972;2023-02-03T07:45:07;6.80;99.90
21627;DHT22;10975;47.872;12.972;2023-02-03T07:47:33;6.80;99.90
21627;DHT22;10975;47.872;12.972;2023-02-03T07:50:00;6.80;99.90
21627;DHT22;10975;47.872;12.972;2023-02-03T07:52:27;6.80;99.90
21627;DHT22;10975;47.872;12.972;2023-02-03T07:54:53;6.80;99.90
21627;DHT22;10975;47.872;12.972;2023-02-03T07:57:20;7.00;99.90
21627;DHT22;10975;47.872;12.972;2023-02-03T07:59:47;7.10;99.90
21627;DHT22;10975;47.872;12.972;2023-02-03T08:02:13;7.10;99.90
21627;DHT22;10975;47.872;12.972;2023-02-03T08:04:40;7.00;99.90
21627;DHT22;10975;47.872;12.972;2023-02-03T08:07:07;7.00;99.90
21627;DHT22;10975;47.872;12.972;2023-02-03T08:09:33;7.20;99.90
21627;DHT22;10975;47.872;12.972;2023-02-03T08:12:00;7.30;99.90
21627;DHT22;10975;47.872;12.972;2023-02-03T08:14:27;7.10;99.90
21627;DHT22;10975;47.872;12.972;2023-02-03T08:16:53;7.20;99.90
21627;DHT22;10975;47.872;12.972;2023-02-03T08:19:20;7.10;99.90
21627;DHT22;10975;47.872;12.972;2023-02-03T08:21:47;7.00;99.90
21627;DHT22;10975;47.872;12.972;2023-02-03T08:24:15;7.10;99.90
21627;DHT22;10975;47.872;12.972;2023-02-03T08:26:42;7.10;99.90
21627;DHT22;10975;47.872;12.972;2023-02-03T08:29:09;7.00;99.90
21627;DHT22;10975;47.872;12.972;2023-02-03T08:31:36;7.20;99.90
21627;DHT22;10975;47.872;12.972;2023-02-03T08:34:03;7.20;99.90
21627;DHT22;10975;47.872;12.972;2023-02-03T08:36:31;7.20;99.90
21627;DHT22;10975;47.872;12.972;2023-02-03T08:38:57;7.20;99.90
21627;DHT22;10975;47.872;12.972;2023-02-03T08:41:24;7.30;99.90
21627;DHT22;10975;47.872;12.972;2023-02-03T08:43:51;7.30;99.90
21627;DHT22;10975;47.872;12.972;2023-02-03T08:46:19;7.30;99.90
21627;DHT22;10975;47.872;12.972;2023-02-03T08:48:46;7.40;99.90
21627;DHT22;10975;47.872;12.972;2023-02-03T08:51:13;7.50;99.90
21627;DHT22;10975;47.872;12.972;2023-02-03T08:53:41;7.50;99.90
21627;DHT22;10975;47.872;12.972;2023-02-03T08:56:08;7.60;99.90
21627;DHT22;10975;47.872;12.972;2023-02-03T08:58:35;7.70;99.90
21627;DHT22;10975;47.872;12.972;2023-02-03T09:01:06;7.60;99.90
21627;DHT22;10975;47.872;12.972;2023-02-03T09:03:34;7.70;99.90
21627;DHT22;10975;47.872;12.972;2023-02-03T09:06:01;7.70;99.90
21627;DHT22;10975;47.872;12.972;2023-02-03T09:08:28;7.70;99.90
21627;DHT22;10975;47.872;12.972;2023-02-03T09:10:55;7.70;99.90
21627;DHT22;10975;47.872;12.972;2023-02-03T09:13:21;7.70;99.90
21627;DHT22;10975;47.872;12.972;2023-02-03T09:15:48;7.80;99.90
21627;DHT22;10975;47.872;12.972;2023-02-03T09:18:15;7.80;99.90
21627;DHT22;10975;47.872;12.972;2023-02-03T09:20:42;7.80;99.90
21627;DHT22;10975;47.872;12.972;2023-02-03T09:23:08;7.80;99.90
21627;DHT22;10975;47.872;12.972;2023-02-03T09:25:35;7.80;99.90
21627;DHT22;10975;47.872;12.972;2023-02-03T09:28:02;8.00;99.90
21627;DHT22;10975;47.872;12.972;2023-02-03T09:30:29;7.90;99.90
21627;DHT22;10975;47.872;12.972;2023-02-03T09:32:56;8.00;99.90
21627;DHT22;10975;47.872;12.972;2023-02-03T09:35:24;7.90;99.90
21627;DHT22;10975;47.872;12.972;2023-02-03T09:38:07;7.90;99.90
21627;DHT22;10975;47.872;12.972;2023-02-03T09:40:34;8.00;99.90
21627;DHT22;10975;47.872;12.972;2023-02-03T09:45:41;8.00;99.90
21627;DHT22;10975;47.872;12.972;2023-02-03T09:48:10;8.00;99.90
21627;DHT22;10975;47.872;12.972;2023-02-03T09:50:39;7.90;99.90
21627;DHT22;10975;47.872;12.972;2023-02-03T09:53:11;8.20;99.90
21627;DHT22;10975;47.872;12.972;2023-02-03T09:55:42;8.10;99.90
21627;DHT22;10975;47.872;12.972;2023-02-03T09:58:13;8.20;99.90
21627;DHT22;10975;47.872;12.972;2023-02-03T10:00:48;8.30;99.90
21627;DHT22;10975;47.872;12.972;2023-02-03T10:03:25;8.10;99.90
21627;DHT22;10975;47.872;12.972;2023-02-03T10:10:51;8.20;99.90
21627;DHT22;10975;47.872;12.972;2023-02-03T10:19:08;8.20;99.90
21627;DHT22;10975;47.872;12.972;2023-02-03T10:21:43;8.20;99.90
21627;DHT22;10975;47.872;12.972;2023-02-03T10:24:55;8.00;99.90
21627;DHT22;10975;47.872;12.972;2023-02-03T10:27:00;8.20;99.90
21627;DHT22;10975;47.872;12.972;2023-02-03T10:29:33;8.10;99.90
21627;DHT22;10975;47.872;12.972;2023-02-03T10:32:01;8.20;99.90
21627;DHT22;10975;47.872;12.972;2023-02-03T10:34:28;8.20;99.90
21627;DHT22;10975;47.872;12.972;2023-02-03T10:36:56;8.20;99.90
21627;DHT22;10975;47.872;12.972;2023-02-03T10:39:26;8.20;99.90
21627;DHT22;10975;47.872;12.972;2023-02-03T10:41:54;8.10;99.90
21627;DHT22;10975;47.872;12.972;2023-02-03T10:44:22;8.10;99.90
21627;DHT22;10975;47.872;12.972;2023-02-03T10:46:51;8.20;99.90
21627;DHT22;10975;47.872;12.972;2023-02-03T10:49:17;8.40;99.90
21627;DHT22;10975;47.872;12.972;2023-02-03T10:51:47;8.50;99.90
21627;DHT22;10975;47.872;12.972;2023-02-03T10:54:29;8.50;99.90
21627;DHT22;10975;47.872;12.972;2023-02-03T10:57:00;8.50;99.90
21627;DHT22;10975;47.872;12.972;2023-02-03T10:59:29;8.60;99.90
21627;DHT22;10975;47.872;12.972;2023-02-03T11:01:56;8.50;99.90
21627;DHT22;10975;47.872;12.972;2023-02-03T11:04:24;8.50;99.90
21627;DHT22;10975;47.872;12.972;2023-02-03T11:06:53;8.60;99.90
21627;DHT22;10975;47.872;12.972;2023-02-03T11:09:36;8.70;99.90
21627;DHT22;10975;47.872;12.972;2023-02-03T11:12:13;8.60;99.90
21627;DHT22;10975;47.872;12.972;2023-02-03T11:14:47;8.70;99.90
21627;DHT22;10975;47.872;12.972;2023-02-03T11:17:24;8.60;99.90
21627;DHT22;10975;47.872;12.972;2023-02-03T11:19:58;8.70;99.90
21627;DHT22;10975;47.872;12.972;2023-02-03T11:22:32;8.60;99.90
21627;DHT22;10975;47.872;12.972;2023-02-03T11:25:00;8.60;99.90
21627;DHT22;10975;47.872;12.972;2023-02-03T11:27:28;8.40;99.90
21627;DHT22;10975;47.872;12.972;2023-02-03T11:32:35;8.70;99.90
21627;DHT22;10975;47.872;12.972;2023-02-03T11:35:04;8.60;99.90
21627;DHT22;10975;47.872;12.972;2023-02-03T11:37:40;8.60;99.90
21627;DHT22;10975;47.872;12.972;2023-02-03T11:42:35;8.80;99.90
21627;DHT22;10975;47.872;12.972;2023-02-03T11:47:47;8.80;99.90
21627;DHT22;10975;47.872;12.972;2023-02-03T11:50:58;8.90;99.90
21627;DHT22;10975;47.872;12.972;2023-02-03T11:53:25;8.80;99.90
21627;DHT22;10975;47.872;12.972;2023-02-03T12:09:22;8.60;99.90
21627;DHT22;10975;47.872;12.972;2023-02-03T12:17:37;8.50;99.90
21627;DHT22;10975;47.872;12.972;2023-02-03T12:20:24;8.70;99.90
21627;DHT22;10975;47.872;12.972;2023-02-03T12:28:23;8.80;99.90
21627;DHT22;10975;47.872;12.972;2023-02-03T12:31:01;8.70;99.90
21627;DHT22;10975;47.872;12.972;2023-02-03T12:33:29;8.70;99.90
21627;DHT22;10975;47.872;12.972;2023-02-03T12:38:44;8.60;99.90
21627;DHT22;10975;47.872;12.972;2023-02-03T12:41:13;8.80;99.90
21627;DHT22;10975;47.872;12.972;2023-02-03T12:43:41;8.60;99.90
21627;DHT22;10975;47.872;12.972;2023-02-03T12:46:17;8.60;99.90
21627;DHT22;10975;47.872;12.972;2023-02-03T12:51:44;8.70;99.90
21627;DHT22;10975;47.872;12.972;2023-02-03T12:54:18;8.80;99.90
21627;DHT22;10975;47.872;12.972;2023-02-03T12:56:47;8.50;99.90
21627;DHT22;10975;47.872;12.972;2023-02-03T12:59:21;8.40;99.90
21627;DHT22;10975;47.872;12.972;2023-02-03T13:01:50;8.50;99.90
21627;DHT22;10975;47.872;12.972;2023-02-03T13:05:05;8.40;99.90
21627;DHT22;10975;47.872;12.972;2023-02-03T13:09:38;8.50;99.90
21627;DHT22;10975;47.872;12.972;2023-02-03T13:12:08;8.50;99.90
21627;DHT22;10975;47.872;12.972;2023-02-03T13:14:41;8.50;99.90
21627;DHT22;10975;47.872;12.972;2023-02-03T13:17:16;8.50;99.90
21627;DHT22;10975;47.872;12.972;2023-02-03T13:19:45;8.50;99.90
21627;DHT22;10975;47.872;12.972;2023-02-03T13:22:13;8.60;99.90
21627;DHT22;10975;47.872;12.972;2023-02-03T13:24:42;8.60;99.90
21627;DHT22;10975;47.872;12.972;2023-02-03T13:40:15;8.60;99.90
21627;DHT22;10975;47.872;12.972;2023-02-03T13:42:44;8.40;99.90
21627;DHT22;10975;47.872;12.972;2023-02-03T13:45:28;8.60;99.90
21627;DHT22;10975;47.872;12.972;2023-02-03T13:47:57;8.40;99.90
21627;DHT22;10975;47.872;12.972;2023-02-03T13:50:27;8.50;99.90
21627;DHT22;10975;47.872;12.972;2023-02-03T13:53:04;8.60;99.90
21627;DHT22;10975;47.872;12.972;2023-02-03T13:55:36;8.60;99.90
21627;DHT22;10975;47.872;12.972;2023-02-03T13:58:04;8.60;99.90
21627;DHT22;10975;47.872;12.972;2023-02-03T14:03:21;8.30;99.90
21627;DHT22;10975;47.872;12.972;2023-02-03T14:06:07;8.10;99.90
21627;DHT22;10975;47.872;12.972;2023-02-03T14:13:48;8.30;99.90
21627;DHT22;10975;47.872;12.972;2023-02-03T14:16:23;8.40;99.90
21627;DHT22;10975;47.872;12.972;2023-02-03T14:18:50;8.40;99.90
21627;DHT22;10975;47.872;12.972;2023-02-03T14:21:18;8.10;99.90
21627;DHT22;10975;47.872;12.972;2023-02-03T14:23:47;8.20;99.90
21627;DHT22;10975;47.872;12.972;2023-02-03T14:26:29;8.40;99.90
21627;DHT22;10975;47.872;12.972;2023-02-03T14:28:56;8.30;99.90
21627;DHT22;10975;47.872;12.972;2023-02-03T14:31:24;8.20;99.90
21627;DHT22;10975;47.872;12.972;2023-02-03T14:36:29;8.10;99.90
21627;DHT22;10975;47.872;12.972;2023-02-03T14:38:57;8.20;99.90
21627;DHT22;10975;47.872;12.972;2023-02-03T14:41:35;8.30;99.90
21627;DHT22;10975;47.872;12.972;2023-02-03T15:02:26;7.90;99.90
21627;DHT22;10975;47.872;12.972;2023-02-03T15:05:57;8.20;99.90
21627;DHT22;10975;47.872;12.972;2023-02-03T15:07:53;8.10;99.90
21627;DHT22;10975;47.872;12.972;2023-02-03T15:12:47;8.10;99.90
21627;DHT22;10975;47.872;12.972;2023-02-03T15:17:45;8.20;99.90
21627;DHT22;10975;47.872;12.972;2023-02-03T15:22:57;8.30;99.90
21627;DHT22;10975;47.872;12.972;2023-02-03T15:25:24;8.20;99.90
21627;DHT22;10975;47.872;12.972;2023-02-03T15:27:52;8.20;99.90
21627;DHT22;10975;47.872;12.972;2023-02-03T15:30:23;8.40;99.90
21627;DHT22;10975;47.872;12.972;2023-02-03T15:32:59;8.30;99.90
21627;DHT22;10975;47.872;12.972;2023-02-03T15:35:29;8.40;99.90
21627;DHT22;10975;47.872;12.972;2023-02-03T15:38:01;8.30;99.90
21627;DHT22;10975;47.872;12.972;2023-02-03T15:40:32;8.20;99.90
21627;DHT22;10975;47.872;12.972;2023-02-03T15:48:00;8.20;99.90
21627;DHT22;10975;47.872;12.972;2023-02-03T15:50:28;8.20;99.90
21627;DHT22;10975;47.872;12.972;2023-02-03T15:52:58;8.30;99.90
21627;DHT22;10975;47.872;12.972;2023-02-03T15:55:31;8.40;99.90
21627;DHT22;10975;47.872;12.972;2023-02-03T15:57:59;8.30;99.90
21627;DHT22;10975;47.872;12.972;2023-02-03T16:00:27;8.40;99.90
21627;DHT22;10975;47.872;12.972;2023-02-03T16:02:57;8.40;99.90
21627;DHT22;10975;47.872;12.972;2023-02-03T16:05:33;8.40;99.90
21627;DHT22;10975;47.872;12.972;2023-02-03T16:10:48;8.40;99.90
21627;DHT22;10975;47.872;12.972;2023-02-03T16:13:25;8.40;99.90
21627;DHT22;10975;47.872;12.972;2023-02-03T16:18:27;8.50;99.90
21627;DHT22;10975;47.872;12.972;2023-02-03T16:20:54;8.40;99.90
21627;DHT22;10975;47.872;12.972;2023-02-03T16:23:21;8.40;99.90
21627;DHT22;10975;47.872;12.972;2023-02-03T16:28:34;8.40;99.90
21627;DHT22;10975;47.872;12.972;2023-02-03T16:31:19;8.60;99.90
21627;DHT22;10975;47.872;12.972;2023-02-03T16:34:23;8.40;99.90
21627;DHT22;10975;47.872;12.972;2023-02-03T16:37:19;8.60;99.90
21627;DHT22;10975;47.872;12.972;2023-02-03T16:40:07;8.70;99.90
21627;DHT22;10975;47.872;12.972;2023-02-03T16:42:52;8.50;99.90
21627;DHT22;10975;47.872;12.972;2023-02-03T16:45:37;8.70;99.90
21627;DHT22;10975;47.872;12.972;2023-02-03T16:48:23;8.60;99.90
21627;DHT22;10975;47.872;12.972;2023-02-03T16:51:14;8.50;99.90
21627;DHT22;10975;47.872;12.972;2023-02-03T16:53:42;8.40;99.90
21627;DHT22;10975;47.872;12.972;2023-02-03T16:56:10;8.50;99.90
21627;DHT22;10975;47.872;12.972;2023-02-03T16:58:37;8.40;99.90
21627;DHT22;10975;47.872;12.972;2023-02-03T17:01:04;8.50;99.90
21627;DHT22;10975;47.872;12.972;2023-02-03T17:03:33;8.40;99.90
21627;DHT22;10975;47.872;12.972;2023-02-03T17:06:01;8.40;99.90
21627;DHT22;10975;47.872;12.972;2023-02-03T17:08:28;8.30;99.90
21627;DHT22;10975;47.872;12.972;2023-02-03T17:10:55;8.20;99.90
21627;DHT22;10975;47.872;12.972;2023-02-03T17:13:27;8.30;99.90
21627;DHT22;10975;47.872;12.972;2023-02-03T17:15:54;8.20;99.90
21627;DHT22;10975;47.872;12.972;2023-02-03T17:18:21;8.10;99.90
21627;DHT22;10975;47.872;12.972;2023-02-03T17:20:47;8.20;99.90
21627;DHT22;10975;47.872;12.972;2023-02-03T17:23:14;8.30;99.90
21627;DHT22;10975;47.872;12.972;2023-02-03T17:25:42;8.10;99.90
21627;DHT22;10975;47.872;12.972;2023-02-03T17:28:10;8.20;99.90
21627;DHT22;10975;47.872;12.972;2023-02-03T17:30:38;8.30;99.90
21627;DHT22;10975;47.872;12.972;2023-02-03T17:33:06;8.20;99.90
21627;DHT22;10975;47.872;12.972;2023-02-03T17:35:39;8.20;99.90
21627;DHT22;10975;47.872;12.972;2023-02-03T17:38:07;8.10;99.90
21627;DHT22;10975;47.872;12.972;2023-02-03T17:40:34;8.20;99.90
21627;DHT22;10975;47.872;12.972;2023-02-03T17:43:18;8.30;99.90
21627;DHT22;10975;47.872;12.972;2023-02-03T17:46:02;8.00;99.90
21627;DHT22;10975;47.872;12.972;2023-02-03T17:48:47;8.10;99.90
21627;DHT22;10975;47.872;12.972;2023-02-03T17:51:31;8.00;99.90
21627;DHT22;10975;47.872;12.972;2023-02-03T17:54:16;8.10;99.90
21627;DHT22;10975;47.872;12.972;2023-02-03T17:56:42;7.90;99.90
21627;DHT22;10975;47.872;12.972;2023-02-03T17:59:13;8.10;99.90
21627;DHT22;10975;47.872;12.972;2023-02-03T18:01:39;7.80;99.90